Time;durP1;ratioP1;P1;durP2;ratioP2;P2;SDS_P1;SDS_P2;PMS_P1;PMS_P2;Temp;Humidity;BMP_temperature;BMP_pressure;BME280_temperature;BME280_humidity;BME280_pressure;Samples;Min_cycle;Max_cycle;Signal;HPM_P1;HPM_P2
2021/06/06 00:00:01;;;;;;;17.87;11.17;;;;;;;15.40;61.50;100410.39;126664;1090;114128;-84
2021/06/06 00:03:26;;;;;;;12.10;9.87;;;;;;;15.37;61.60;100415.80;126817;1090;102857;-83
2021/06/06 00:06:24;;;;;;;16.60;10.90;;;;;;;15.34;61.58;100418.59;126736;1088;113492;-84
2021/06/06 00:09:16;;;;;;;13.10;10.50;;;;;;;15.33;61.82;100414.27;126803;1090;103018;-84
2021/06/06 00:12:04;;;;;;;12.67;10.07;;;;;;;15.30;61.72;100414.41;126714;1090;114547;-84
2021/06/06 00:14:52;;;;;;;12.60;10.37;;;;;;;15.29;61.74;100417.97;126748;1090;102871;-84
2021/06/06 00:17:41;;;;;;;16.43;10.63;;;;;;;15.25;61.63;100416.39;126656;1090;114580;-84
2021/06/06 00:20:29;;;;;;;12.93;10.67;;;;;;;15.23;61.78;100412.99;126811;1090;102958;-84
2021/06/06 00:23:20;;;;;;;13.07;10.27;;;;;;;15.21;62.31;100405.19;126661;1089;114428;-84
2021/06/06 00:26:09;;;;;;;17.23;10.23;;;;;;;15.18;62.28;100407.97;126804;1090;102920;-84
2021/06/06 00:29:05;;;;;;;14.50;10.60;;;;;;;15.18;62.43;100407.12;126850;1089;102919;-84
2021/06/06 00:31:54;;;;;;;12.50;9.90;;;;;;;15.17;62.47;100413.30;126736;1089;113131;-84
2021/06/06 00:34:44;;;;;;;14.13;10.53;;;;;;;15.16;62.56;100412.45;126750;1090;102985;-86
2021/06/06 00:37:32;;;;;;;13.67;10.27;;;;;;;15.15;62.32;100412.53;126678;1088;114275;-84
2021/06/06 00:40:27;;;;;;;11.00;9.83;;;;;;;15.12;62.65;100410.91;126833;1090;102791;-84
2021/06/06 00:43:16;;;;;;;14.63;11.03;;;;;;;15.11;62.70;100407.42;126677;1089;116530;-84
2021/06/06 00:46:07;;;;;;;14.80;11.20;;;;;;;15.09;62.56;100404.02;126793;1090;103064;-84
2021/06/06 00:49:11;;;;;;;13.33;10.80;;;;;;;15.07;62.93;100397.97;126736;1090;114291;-84
2021/06/06 00:52:01;;;;;;;14.93;10.77;;;;;;;15.06;62.88;100401.52;126836;1090;102985;-86
2021/06/06 00:54:52;;;;;;;15.13;11.57;;;;;;;15.04;63.22;100408.63;126658;1090;114260;-86
2021/06/06 00:57:43;;;;;;;13.57;10.10;;;;;;;15.02;63.24;100407.00;126812;1090;102866;-86
2021/06/06 01:00:46;;;;;;;14.63;11.33;;;;;;;14.99;63.41;100399.28;126660;1090;114533;-86
2021/06/06 01:03:35;;;;;;;15.50;10.90;;;;;;;14.95;63.57;100406.45;126780;1090;103748;-86
2021/06/06 01:06:36;;;;;;;13.30;10.70;;;;;;;14.91;63.81;100407.53;126689;1090;114267;-86
2021/06/06 01:09:26;;;;;;;14.27;11.17;;;;;;;14.85;63.84;100413.05;126783;1090;103323;-86
2021/06/06 01:12:24;;;;;;;12.93;10.70;;;;;;;14.79;63.97;100405.47;126645;1090;114672;-86
2021/06/06 01:15:23;;;;;;;13.67;11.07;;;;;;;14.71;64.06;100411.06;126877;1090;102875;-86
2021/06/06 01:18:32;;;;;;;13.07;10.27;;;;;;;14.65;64.36;100403.48;126713;1090;114482;-86
2021/06/06 01:22:05;;;;;;;12.77;10.63;;;;;;;14.55;64.39;100404.00;126727;1089;102664;-86
2021/06/06 01:25:04;;;;;;;13.97;10.70;;;;;;;14.48;64.72;100399.01;126704;1090;114406;-86
2021/06/06 01:28:02;;;;;;;13.13;10.90;;;;;;;14.42;64.80;100401.89;126748;1089;102885;-86
2021/06/06 01:30:57;;;;;;;14.33;11.87;;;;;;;14.38;64.96;100413.45;126688;1090;114528;-85
2021/06/06 01:33:57;;;;;;;13.83;11.17;;;;;;;14.34;65.28;100411.86;126805;1090;102943;-84
2021/06/06 01:36:52;;;;;;;14.80;11.27;;;;;;;14.27;65.09;100404.35;126636;1090;114556;-84
2021/06/06 01:39:47;;;;;;;12.10;10.60;;;;;;;14.24;65.33;100399.25;126911;1090;102917;-84
2021/06/06 01:42:44;;;;;;;12.10;10.67;;;;;;;14.19;65.47;100407.33;126663;1090;113264;-85
2021/06/06 01:45:40;;;;;;;12.40;10.33;;;;;;;14.15;65.43;100411.83;126764;1089;103030;-84
2021/06/06 01:48:31;;;;;;;14.93;10.50;;;;;;;14.13;65.93;100410.20;126651;1090;115130;-84
2021/06/06 01:51:30;;;;;;;12.90;10.67;;;;;;;14.09;66.01;100411.27;126750;1090;103093;-86
2021/06/06 01:54:23;;;;;;;13.55;10.43;;;;;;;14.07;66.08;100413.95;126682;1090;114540;-85
2021/06/06 01:57:19;;;;;;;13.47;11.47;;;;;;;14.06;66.28;100419.27;126783;1088;102863;-84
2021/06/06 02:00:18;;;;;;;14.07;11.13;;;;;;;14.05;66.51;100409.70;126699;1089;114574;-85
2021/06/06 02:03:07;;;;;;;13.57;10.80;;;;;;;14.02;66.48;100415.94;126719;1090;102982;-85
2021/06/06 02:05:57;;;;;;;15.97;11.10;;;;;;;13.99;66.47;100415.19;126626;1090;113497;-85
2021/06/06 02:08:57;;;;;;;16.47;10.87;;;;;;;13.96;66.30;100420.58;126812;1090;102932;-85
2021/06/06 02:11:57;;;;;;;16.33;10.97;;;;;;;13.93;66.77;100420.71;126743;1089;114484;-85
2021/06/06 02:14:50;;;;;;;16.43;11.13;;;;;;;13.90;66.65;100417.31;126826;1090;100791;-85
2021/06/06 02:17:52;;;;;;;13.73;10.93;;;;;;;13.86;66.68;100415.75;126740;1088;114711;-85
2021/06/06 02:20:49;;;;;;;14.30;11.77;;;;;;;13.83;66.65;100409.78;126763;1090;102960;-84
2021/06/06 02:23:48;;;;;;;11.73;10.13;;;;;;;13.78;66.96;100409.96;126672;1090;114517;-84
2021/06/06 02:26:50;;;;;;;12.10;10.13;;;;;;;13.75;67.12;100411.87;126819;1090;102648;-86
2021/06/06 02:29:51;;;;;;;10.77;9.27;;;;;;;13.72;66.83;100407.61;126722;1089;114624;-84
2021/06/06 02:33:24;;;;;;;11.87;9.53;;;;;;;13.70;67.09;100404.20;126859;1090;101130;-84
2021/06/06 02:36:18;;;;;;;12.43;10.03;;;;;;;13.67;67.26;100406.96;126725;1090;114126;-84
2021/06/06 02:39:17;;;;;;;11.37;9.50;;;;;;;13.69;67.25;100406.89;126715;1089;102673;-84
2021/06/06 02:42:25;;;;;;;10.47;9.37;;;;;;;13.70;67.42;100419.08;126643;1088;114323;-84
2021/06/06 02:45:27;;;;;;;11.67;9.53;;;;;;;13.71;67.12;100418.16;126785;1090;102962;-84
2021/06/06 02:48:21;;;;;;;13.80;9.63;;;;;;;13.72;67.51;100412.00;126700;1090;113222;-84
2021/06/06 02:51:16;;;;;;;13.50;10.73;;;;;;;13.73;67.06;100417.17;126784;1090;103000;-86
2021/06/06 02:54:30;;;;;;;10.93;9.63;;;;;;;13.77;67.33;100415.27;126668;1088;114464;-86
2021/06/06 02:57:22;;;;;;;14.27;10.47;;;;;;;13.79;67.29;100414.28;126760;1090;102855;-77
2021/06/06 03:00:26;;;;;;;16.20;10.70;;;;;;;13.81;67.49;100412.44;126543;1089;114440;-80
2021/06/06 03:03:28;;;;;;;11.00;9.73;;;;;;;13.83;67.38;100415.88;126709;1089;102934;-81
2021/06/06 03:06:30;;;;;;;12.70;9.57;;;;;;;13.85;67.28;100413.19;126632;1090;114124;-81
2021/06/06 03:09:19;;;;;;;16.30;11.77;;;;;;;13.87;67.57;100409.58;126680;1090;102930;-81
2021/06/06 03:12:15;;;;;;;11.90;10.43;;;;;;;13.91;67.39;100413.77;126650;1090;114646;-80
2021/06/06 03:15:09;;;;;;;11.33;10.13;;;;;;;13.95;67.29;100419.72;126802;1090;102981;-80
2021/06/06 03:18:01;;;;;;;11.80;10.00;;;;;;;14.00;66.99;100416.89;126617;1090;114524;-81
2021/06/06 03:20:54;;;;;;;14.00;9.30;;;;;;;14.03;67.18;100419.41;126675;1090;102980;-80
2021/06/06 03:23:50;;;;;;;12.23;9.10;;;;;;;14.08;67.34;100430.55;126621;1090;114364;-80
2021/06/06 03:26:41;;;;;;;11.10;9.73;;;;;;;14.11;67.45;100427.78;126667;1090;103134;-80
2021/06/06 03:29:35;;;;;;;12.60;9.53;;;;;;;14.12;67.13;100416.38;126673;1090;113236;-80
2021/06/06 03:32:32;;;;;;;12.30;9.33;;;;;;;14.16;67.44;100415.31;126726;1090;102980;-80
2021/06/06 03:35:20;;;;;;;11.67;9.43;;;;;;;14.20;67.14;100423.00;126684;1090;102929;-80
2021/06/06 03:38:11;;;;;;;11.10;9.77;;;;;;;14.26;67.08;100416.62;126684;1089;114294;-81
2021/06/06 03:41:00;;;;;;;10.57;9.03;;;;;;;14.31;67.07;100422.50;126728;1090;103000;-80
2021/06/06 03:43:55;;;;;;;12.03;9.77;;;;;;;14.37;67.13;100417.00;126623;1090;113101;-80
2021/06/06 03:46:43;;;;;;;10.43;9.07;;;;;;;14.45;66.89;100422.77;126670;1090;102852;-81
2021/06/06 03:49:31;;;;;;;11.83;9.73;;;;;;;14.55;66.81;100420.59;126563;1090;114123;-81
2021/06/06 03:52:20;;;;;;;12.67;9.00;;;;;;;14.63;66.18;100422.86;126735;1090;102881;-81
2021/06/06 03:55:11;;;;;;;14.40;10.03;;;;;;;14.69;66.17;100419.94;126646;1090;114145;-81
2021/06/06 03:57:59;;;;;;;14.07;10.03;;;;;;;14.78;66.35;100422.16;126686;1090;101140;-81
2021/06/06 04:00:49;;;;;;;11.20;10.00;;;;;;;14.87;66.08;100419.08;126634;1090;114343;-81
2021/06/06 04:03:38;;;;;;;13.63;10.27;;;;;;;14.96;66.01;100415.19;126727;1090;103022;-81
2021/06/06 04:06:27;;;;;;;13.60;9.87;;;;;;;15.05;65.75;100420.83;126667;1090;114521;-81
2021/06/06 04:09:17;;;;;;;13.67;10.33;;;;;;;15.11;65.50;100415.31;126726;1088;102699;-81
2021/06/06 04:12:05;;;;;;;15.07;10.57;;;;;;;15.20;65.51;100418.41;126648;1090;114450;-81
2021/06/06 04:14:54;;;;;;;13.47;10.83;;;;;;;15.31;65.31;100413.48;126708;1089;103414;-80
2021/06/06 04:17:41;;;;;;;16.20;10.70;;;;;;;15.41;65.30;100418.20;126647;1090;102840;-83
2021/06/06 04:20:29;;;;;;;13.43;10.03;;;;;;;15.50;65.01;100414.28;126612;1090;113082;-80
2021/06/06 04:23:20;;;;;;;16.23;11.30;;;;;;;15.60;64.90;100412.91;126735;1089;102773;-80
2021/06/06 04:26:09;;;;;;;11.63;9.27;;;;;;;15.69;64.42;100412.45;126658;1089;114259;-81
2021/06/06 04:28:59;;;;;;;12.73;9.63;;;;;;;15.77;64.31;100414.69;126700;1089;102851;-81
2021/06/06 04:31:50;;;;;;;13.15;9.25;;;;;;;15.85;63.99;100412.53;126615;1090;114129;-82
2021/06/06 04:34:38;;;;;;;13.23;8.80;;;;;;;15.94;63.75;100411.20;126736;1089;102915;-82
2021/06/06 04:37:28;;;;;;;9.90;7.55;;;;;;;16.05;63.61;100414.13;126647;1089;114209;-82
2021/06/06 04:40:17;;;;;;;11.63;7.70;;;;;;;16.15;63.23;100415.34;126775;1089;102973;-82
2021/06/06 04:43:07;;;;;;;9.90;7.87;;;;;;;16.27;63.35;100409.44;126622;1089;114140;-82
2021/06/06 04:45:56;;;;;;;10.00;7.77;;;;;;;16.40;63.36;100419.33;126631;1089;102860;-82
2021/06/06 04:48:47;;;;;;;11.40;7.10;;;;;;;16.51;63.19;100419.58;126560;1090;114284;-82
2021/06/06 04:51:35;;;;;;;9.40;7.13;;;;;;;16.64;62.75;100420.63;126731;1090;102888;-82
2021/06/06 04:54:35;;;;;;;8.13;7.07;;;;;;;16.78;62.58;100420.76;126647;1090;113258;-82
2021/06/06 04:57:23;;;;;;;9.10;7.40;;;;;;;16.93;62.12;100420.85;126793;1090;103054;-81
2021/06/06 05:00:18;;;;;;;9.13;7.40;;;;;;;17.07;61.83;100415.67;126625;1090;114277;-82
2021/06/06 05:03:07;;;;;;;8.03;7.13;;;;;;;17.21;61.47;100418.34;126701;1090;102878;-82
2021/06/06 05:05:55;;;;;;;7.73;6.93;;;;;;;17.38;61.13;100423.51;126729;1090;102866;-82
2021/06/06 05:08:44;;;;;;;8.03;6.80;;;;;;;17.55;60.84;100421.69;126629;1089;113898;-82
2021/06/06 05:11:33;;;;;;;10.03;8.27;;;;;;;17.70;60.47;100420.83;126778;1090;102901;-82
2021/06/06 05:14:22;;;;;;;10.03;7.37;;;;;;;17.88;60.44;100418.89;126569;1090;114099;-82
2021/06/06 05:17:14;;;;;;;10.70;6.77;;;;;;;18.14;60.13;100419.98;126695;1089;103007;-82
2021/06/06 05:20:11;;;;;;;10.30;7.37;;;;;;;18.45;59.72;100419.78;126639;1090;114627;-82
2021/06/06 05:22:59;;;;;;;11.87;7.17;;;;;;;18.79;59.50;100426.48;126747;1090;103084;-82
2021/06/06 05:25:50;;;;;;;8.90;6.27;;;;;;;19.14;58.78;100424.22;126614;1090;114243;-82
2021/06/06 05:28:38;;;;;;;8.53;6.37;;;;;;;19.51;58.24;100419.16;126680;1088;102696;-82
2021/06/06 05:31:25;;;;;;;;;;;;;;;19.82;57.18;100410.90;126645;1089;112931;-82
2021/06/06 05:34:14;;;;;;;9.98;6.88;;;;;;;20.17;57.15;100418.23;126715;1090;102862;-82
2021/06/06 05:37:02;;;;;;;8.53;6.70;;;;;;;20.57;56.61;100421.61;126624;1090;114121;-82
2021/06/06 05:39:50;;;;;;;9.70;6.75;;;;;;;21.00;55.17;100426.47;126722;1090;102921;-82
2021/06/06 05:42:38;;;;;;;9.87;6.97;;;;;;;21.55;55.08;100423.31;126571;1090;114081;-82
2021/06/06 05:45:26;;;;;;;10.17;7.40;;;;;;;22.18;53.87;100415.88;126685;1090;103450;-82
2021/06/06 05:48:15;;;;;;;13.67;9.20;;;;;;;22.83;53.36;100418.67;126664;1090;102849;-82
2021/06/06 05:51:03;;;;;;;14.20;9.43;;;;;;;23.93;52.26;100406.89;126553;1090;114230;-82
2021/06/06 05:54:30;;;;;;;12.53;8.60;;;;;;;26.42;49.01;100401.21;126671;1088;102884;-82
2021/06/06 05:57:17;;;;;;;9.40;6.20;;;;;;;28.73;45.10;100391.30;126569;1090;114154;-80
2021/06/06 06:00:27;;;;;;;8.90;7.30;;;;;;;30.81;42.65;100396.89;126802;1090;102952;-80
2021/06/06 06:03:17;;;;;;;10.07;6.73;;;;;;;32.75;38.54;100388.05;126639;1090;113940;-80
2021/06/06 06:06:06;;;;;;;8.50;5.97;;;;;;;34.27;36.47;100393.19;126734;1090;102943;-80
2021/06/06 06:08:55;;;;;;;8.17;6.57;;;;;;;35.55;34.12;100393.26;126637;1090;114293;-80
2021/06/06 06:11:42;;;;;;;8.17;5.80;;;;;;;36.49;32.10;100387.49;126693;1089;102874;-80
2021/06/06 06:14:30;;;;;;;9.87;4.70;;;;;;;37.45;30.07;100398.27;126599;1090;114122;-80
2021/06/06 06:17:18;;;;;;;6.10;4.47;;;;;;;38.49;28.87;100402.11;126696;1090;102924;-80
2021/06/06 06:20:11;;;;;;;7.97;5.70;;;;;;;39.43;27.71;100402.52;126642;1090;114127;-81
2021/06/06 06:22:59;;;;;;;10.60;6.50;;;;;;;40.33;26.48;100394.83;126695;1090;103039;-80
2021/06/06 06:25:48;;;;;;;9.20;5.93;;;;;;;41.02;25.03;100403.09;126601;1089;113007;-80
2021/06/06 06:28:36;;;;;;;7.63;5.27;;;;;;;41.53;24.20;100395.79;126681;1090;102286;-80
2021/06/06 06:31:34;;;;;;;5.10;4.13;;;;;;;41.92;23.25;100402.16;126595;1089;114115;-80
2021/06/06 06:34:25;;;;;;;6.25;5.20;;;;;;;42.41;22.47;100403.14;126729;1088;102861;-80
2021/06/06 06:37:13;;;;;;;5.57;4.27;;;;;;;42.57;22.11;100406.93;126597;1089;114111;-80
2021/06/06 06:40:01;;;;;;;6.27;5.17;;;;;;;42.84;21.12;100406.95;126664;1090;103124;-80
2021/06/06 06:42:49;;;;;;;6.60;4.93;;;;;;;43.26;20.75;100414.52;126701;1090;102849;-80
2021/06/06 06:45:41;;;;;;;6.80;5.90;;;;;;;43.72;20.02;100418.53;126717;1090;100994;-80
2021/06/06 06:48:30;;;;;;;7.50;5.37;;;;;;;43.93;19.29;100411.24;126773;1090;103011;-80
2021/06/06 06:51:18;;;;;;;5.27;3.77;;;;;;;44.06;19.03;100416.27;126599;1088;113997;-80
2021/06/06 06:54:05;;;;;;;10.00;5.07;;;;;;;44.13;18.86;100413.30;126658;1089;102977;-80
2021/06/06 06:56:53;;;;;;;5.77;4.00;;;;;;;44.03;18.54;100421.48;126608;1090;114279;-80
2021/06/06 06:59:41;;;;;;;6.10;4.47;;;;;;;44.20;18.29;100406.48;126752;1090;102871;-80
2021/06/06 07:02:29;;;;;;;6.83;4.43;;;;;;;44.40;18.00;100413.17;126568;1090;113979;-81
2021/06/06 07:05:18;;;;;;;7.43;4.00;;;;;;;44.42;17.45;100409.05;126728;1088;101759;-81
2021/06/06 07:08:14;;;;;;;6.60;4.83;;;;;;;44.67;17.45;100413.01;126577;1090;114340;-81
2021/06/06 07:11:05;;;;;;;6.83;5.00;;;;;;;44.65;17.25;100413.28;126652;1090;102885;-81
2021/06/06 07:13:56;;;;;;;8.47;4.73;;;;;;;44.79;16.81;100399.84;126619;1089;114241;-81
2021/06/06 07:16:43;;;;;;;9.13;4.70;;;;;;;44.83;16.67;100403.70;126700;1090;102965;-81
2021/06/06 07:19:32;;;;;;;6.93;5.50;;;;;;;45.08;16.50;100405.71;126540;1090;114935;-81
2021/06/06 07:22:19;;;;;;;5.23;3.70;;;;;;;45.31;16.55;100405.20;126703;1089;102844;-81
2021/06/06 07:25:12;;;;;;;8.20;5.33;;;;;;;45.48;16.29;100405.74;126750;1089;103257;-81
2021/06/06 07:28:01;;;;;;;11.93;5.70;;;;;;;45.51;16.02;100404.36;126542;1089;113766;-81
2021/06/06 07:30:53;;;;;;;10.67;6.53;;;;;;;45.48;15.87;100408.50;126715;1089;102949;-81
2021/06/06 07:33:43;;;;;;;6.10;4.40;;;;;;;45.57;15.43;100402.41;126671;1088;114414;-81
2021/06/06 07:36:31;;;;;;;10.23;6.57;;;;;;;45.43;15.66;100400.25;126686;1090;103028;-81
2021/06/06 07:39:19;;;;;;;7.77;4.70;;;;;;;45.26;15.33;100399.70;126618;1087;114124;-81
2021/06/06 07:42:14;;;;;;;9.20;5.90;;;;;;;45.03;15.51;100401.00;126728;1089;102890;-81
2021/06/06 07:45:05;;;;;;;5.00;4.03;;;;;;;44.88;15.55;100399.05;126660;1090;113952;-81
2021/06/06 07:47:53;;;;;;;6.53;4.80;;;;;;;44.80;15.58;100402.32;126680;1089;101525;-81
2021/06/06 07:50:43;;;;;;;5.83;3.63;;;;;;;44.87;15.49;100400.15;126578;1089;114093;-81
2021/06/06 07:53:31;;;;;;;8.63;5.10;;;;;;;44.94;15.62;100399.91;126707;1090;103004;-81
2021/06/06 07:56:19;;;;;;;7.67;4.73;;;;;;;45.09;15.36;100405.44;126590;1090;113042;-81
2021/06/06 07:59:07;;;;;;;5.60;3.40;;;;;;;44.85;15.55;100399.56;126689;1090;102878;-81
2021/06/06 08:01:55;;;;;;;7.43;4.73;;;;;;;44.87;15.13;100404.83;126601;1090;114152;-81
2021/06/06 08:04:45;;;;;;;4.23;2.93;;;;;;;44.87;14.91;100400.15;126698;1090;102880;-81
2021/06/06 08:07:32;;;;;;;8.07;3.93;;;;;;;44.57;14.78;100405.56;126712;1088;102692;-81
2021/06/06 08:10:24;;;;;;;5.20;2.90;;;;;;;43.91;15.20;100405.19;126605;1090;113808;-81
2021/06/06 08:13:12;;;;;;;8.37;5.33;;;;;;;43.76;15.56;100411.41;126731;1089;102868;-81
2021/06/06 08:16:02;;;;;;;4.63;4.00;;;;;;;43.63;15.64;100409.94;126601;1090;114133;-81
2021/06/06 08:18:50;;;;;;;9.27;5.00;;;;;;;43.32;16.13;100402.53;126530;1090;102824;-81
2021/06/06 08:21:44;;;;;;;5.87;4.27;;;;;;;43.13;16.45;100405.63;126577;1089;114281;-81
2021/06/06 08:24:32;;;;;;;10.57;8.03;;;;;;;43.28;15.77;100398.63;126675;1090;102870;-81
2021/06/06 08:27:19;;;;;;;5.77;4.00;;;;;;;43.20;15.98;100399.09;126627;1090;114367;-81
2021/06/06 08:30:12;;;;;;;6.77;2.97;;;;;;;42.32;15.47;100404.66;126761;1089;101419;-81
2021/06/06 08:33:00;;;;;;;3.50;2.30;;;;;;;42.11;15.60;100399.99;126564;1089;112822;-81
2021/06/06 08:36:23;;;;;;;6.33;4.17;;;;;;;42.11;16.46;100405.47;126643;1090;102882;-81
2021/06/06 08:39:18;;;;;;;11.13;6.03;;;;;;;42.20;16.67;100399.31;126648;1089;112968;-81
2021/06/06 08:42:16;;;;;;;4.23;3.03;;;;;;;42.14;15.99;100402.22;126747;1089;102897;-80
2021/06/06 08:45:24;;;;;;;4.10;3.40;;;;;;;41.10;16.09;100401.84;126665;1090;113992;-81
2021/06/06 08:48:13;;;;;;;6.17;4.60;;;;;;;39.71;16.81;100399.98;126683;1089;102855;-80
2021/06/06 08:51:04;;;;;;;4.40;3.10;;;;;;;38.47;17.90;100397.95;126590;1090;114305;-80
2021/06/06 08:54:10;;;;;;;8.20;5.33;;;;;;;37.23;18.18;100405.11;126674;1090;102978;-82
2021/06/06 08:57:03;;;;;;;5.97;4.10;;;;;;;36.01;19.26;100408.69;126624;1090;113936;-82
2021/06/06 08:59:57;;;;;;;6.60;4.10;;;;;;;35.76;20.43;100403.06;126684;1090;102930;-81
2021/06/06 09:02:51;;;;;;;5.33;4.43;;;;;;;35.51;20.47;100391.98;126611;1090;113805;-82
2021/06/06 09:05:44;;;;;;;13.57;5.93;;;;;;;35.00;20.57;100400.63;126701;1090;100545;-81
2021/06/06 09:08:33;;;;;;;7.43;3.83;;;;;;;34.01;21.21;100400.13;126575;1090;114518;-82
2021/06/06 09:11:24;;;;;;;8.87;5.10;;;;;;;33.02;22.19;100405.42;126724;1090;102865;-82
2021/06/06 09:14:12;;;;;;;9.77;5.10;;;;;;;32.19;22.49;100405.77;126541;1090;114117;-82
2021/06/06 09:17:09;;;;;;;7.60;5.10;;;;;;;31.52;23.25;100403.01;126624;1089;103284;-81
2021/06/06 09:19:59;;;;;;;7.07;4.10;;;;;;;31.03;24.29;100411.41;126591;1090;114308;-81
2021/06/06 09:22:48;;;;;;;8.40;5.80;;;;;;;30.90;24.53;100409.31;126678;1090;102930;-81
2021/06/06 09:25:42;;;;;;;7.30;3.97;;;;;;;31.09;24.83;100408.02;126702;1090;102866;-81
2021/06/06 09:28:31;;;;;;;9.63;5.07;;;;;;;31.14;25.00;100408.31;126659;1090;117125;-81
2021/06/06 09:31:24;;;;;;;7.37;4.23;;;;;;;31.65;24.75;100395.16;126681;1090;103100;-81
2021/06/06 09:34:22;;;;;;;8.20;3.57;;;;;;;32.46;23.94;100393.49;126519;1090;113909;-82
2021/06/06 09:37:17;;;;;;;7.83;5.67;;;;;;;33.42;23.39;100391.52;126644;1089;103685;-82
2021/06/06 09:40:11;;;;;;;6.23;4.97;;;;;;;33.54;22.79;100389.94;126588;1089;113466;-82
2021/06/06 09:43:01;;;;;;;7.00;3.73;;;;;;;32.88;22.60;100389.28;126705;1090;102942;-82
2021/06/06 09:46:19;;;;;;;6.43;4.33;;;;;;;32.05;23.00;100385.84;126539;1090;114078;-81
2021/06/06 09:49:11;;;;;;;8.47;4.80;;;;;;;31.18;23.85;100389.96;126713;1089;102883;-81
2021/06/06 09:52:43;;;;;;;7.20;4.67;;;;;;;30.75;24.50;100386.00;126561;1090;114061;-81
2021/06/06 09:55:31;;;;;;;12.97;9.77;;;;;;;30.70;24.84;100394.58;126719;1088;102878;-79
2021/06/06 09:58:45;;;;;;;14.50;7.83;;;;;;;31.20;24.72;100388.76;126647;1090;114428;-79
2021/06/06 10:01:37;;;;;;;7.77;3.80;;;;;;;32.09;24.63;100378.21;126298;1092;103032;-80
2021/06/06 10:04:33;;;;;;;13.97;9.57;;;;;;;32.81;24.12;100380.24;126280;1092;114386;-81
2021/06/06 10:07:33;;;;;;;4.73;3.60;;;;;;;33.51;23.74;100382.23;126334;1093;103007;-82
2021/06/06 10:10:35;;;;;;;10.87;6.77;;;;;;;33.79;22.53;100372.27;126247;1092;113993;-81
2021/06/06 10:13:32;;;;;;;11.57;5.87;;;;;;;33.48;22.82;100378.05;126357;1092;101509;-80
2021/06/06 10:16:35;;;;;;;11.33;8.50;;;;;;;33.16;22.74;100378.55;126161;1092;114116;-81
2021/06/06 10:19:34;;;;;;;8.23;5.13;;;;;;;32.67;22.82;100369.25;126302;1092;102931;-81
2021/06/06 10:22:36;;;;;;;8.03;4.70;;;;;;;32.59;23.28;100371.23;126378;1092;113896;-81
2021/06/06 10:25:47;;;;;;;5.87;4.20;;;;;;;32.66;22.93;100370.27;126281;1093;102833;-81
2021/06/06 10:28:48;;;;;;;5.67;3.53;;;;;;;32.67;22.50;100368.41;126484;1092;113742;-82
2021/06/06 10:31:48;;;;;;;7.17;3.83;;;;;;;32.71;22.41;100358.92;126311;1093;103086;-82
2021/06/06 10:34:53;;;;;;;9.77;6.13;;;;;;;32.48;22.27;100358.20;126275;1091;113860;-82
2021/06/06 10:37:44;;;;;;;10.90;5.70;;;;;;;31.75;22.71;100363.39;126601;1092;102873;-82
2021/06/06 10:41:10;;;;;;;10.73;6.37;;;;;;;31.71;23.25;100362.05;126615;1090;113088;-82
2021/06/06 10:44:08;;;;;;;7.53;5.30;;;;;;;31.75;23.90;100352.59;126305;1092;103006;-80
2021/06/06 10:47:05;;;;;;;15.30;8.30;;;;;;;31.53;23.98;100356.16;126287;1092;113875;-80
2021/06/06 10:49:58;;;;;;;6.25;4.33;;;;;;;31.42;24.53;100359.28;126310;1091;102879;-80
2021/06/06 10:52:46;;;;;;;7.97;5.23;;;;;;;31.40;24.82;100361.32;126223;1093;114140;-80
2021/06/06 10:55:37;;;;;;;6.40;3.53;;;;;;;31.11;24.12;100354.80;126231;1093;103105;-77
2021/06/06 10:58:36;;;;;;;4.73;3.30;;;;;;;30.70;24.94;100359.58;126207;1093;113977;-76
2021/06/06 11:01:52;;;;;;;12.73;5.67;;;;;;;30.37;24.78;100359.73;126053;1092;102878;-76
2021/06/06 11:04:51;;;;;;;7.27;4.33;;;;;;;30.37;25.13;100364.28;126157;1093;114230;-77
2021/06/06 11:07:43;;;;;;;9.80;7.03;;;;;;;30.52;24.85;100359.84;126187;1092;102939;-78
2021/06/06 11:10:37;;;;;;;7.77;5.47;;;;;;;30.77;25.09;100357.04;126229;1093;113958;-77
2021/06/06 11:13:41;;;;;;;4.87;3.33;;;;;;;30.93;25.03;100347.01;126282;1093;102862;-79
2021/06/06 11:16:35;;;;;;;5.80;3.60;;;;;;;31.05;24.99;100344.72;126271;1092;113981;-80
2021/06/06 11:19:35;;;;;;;7.43;4.50;;;;;;;31.01;24.79;100338.02;126283;1092;102927;-80
2021/06/06 11:22:34;;;;;;;10.40;6.17;;;;;;;30.79;24.88;100344.23;126584;1090;113089;-80
2021/06/06 11:25:27;;;;;;;7.90;4.50;;;;;;;30.55;24.81;100348.72;126700;1090;103984;-80
2021/06/06 11:28:36;;;;;;;5.83;3.63;;;;;;;30.15;25.37;100352.39;126515;1089;113029;-80
2021/06/06 11:31:30;;;;;;;9.43;5.30;;;;;;;29.80;25.46;100342.88;126615;1089;102951;-80
2021/06/06 11:34:37;;;;;;;92.03;24.37;;;;;;;29.44;25.63;100345.07;126517;1090;114954;-79
2021/06/06 11:37:37;;;;;;;38.40;12.33;;;;;;;29.06;25.75;100342.04;126601;1088;102890;-82
2021/06/06 11:40:40;;;;;;;39.20;13.60;;;;;;;29.10;26.00;100335.36;126580;1089;114768;-81
2021/06/06 11:43:32;;;;;;;30.50;12.77;;;;;;;29.22;26.00;100335.84;126732;1089;102937;-81
2021/06/06 11:46:32;;;;;;;9.97;5.33;;;;;;;29.14;26.36;100335.86;126500;1090;114536;-81
2021/06/06 11:49:37;;;;;;;9.83;5.37;;;;;;;28.98;26.27;100325.09;126757;1089;103408;-81
2021/06/06 11:52:45;;;;;;;9.70;4.63;;;;;;;28.78;26.06;100320.00;126607;1090;114045;-81
2021/06/06 11:56:06;;;;;;;7.47;5.57;;;;;;;28.55;26.61;100325.16;126775;1090;102907;-80
2021/06/06 11:59:05;;;;;;;7.90;4.25;;;;;;;28.46;26.19;100327.96;126628;1090;112678;-80
2021/06/06 12:02:00;;;;;;;15.83;9.17;;;;;;;28.54;26.09;100317.24;126665;1089;102965;-80
2021/06/06 12:04:48;;;;;;;15.73;9.67;;;;;;;28.66;26.25;100310.58;126584;1090;114080;-81
2021/06/06 12:07:40;;;;;;;19.83;12.60;;;;;;;28.72;26.80;100301.02;126666;1090;102894;-80
2021/06/06 12:10:34;;;;;;;16.87;10.37;;;;;;;28.79;26.98;100308.26;126629;1090;114352;-82
2021/06/06 12:13:39;;;;;;;12.47;8.37;;;;;;;28.80;26.34;100312.63;126685;1089;101368;-80
2021/06/06 12:16:28;;;;;;;12.55;6.80;;;;;;;28.67;26.08;100301.52;126541;1090;114386;-78
2021/06/06 12:19:18;;;;;;;12.40;7.40;;;;;;;28.68;26.23;100303.20;126590;1090;103007;-80
2021/06/06 12:22:14;;;;;;;13.53;8.30;;;;;;;28.65;25.92;100305.38;126653;1088;114272;-80
2021/06/06 12:25:16;;;;;;;4.50;3.80;;;;;;;28.36;25.77;100303.09;126716;1089;102883;-80
2021/06/06 12:28:22;;;;;;;10.30;6.13;;;;;;;28.30;25.54;100299.23;126613;1089;113951;-80
2021/06/06 12:31:40;;;;;;;12.37;7.93;;;;;;;28.34;25.71;100292.53;126704;1090;102913;-80
2021/06/06 12:34:30;;;;;;;4.47;3.30;;;;;;;28.34;26.39;100300.58;126692;1089;114133;-80
2021/06/06 12:37:31;;;;;;;4.77;3.40;;;;;;;28.41;26.07;100293.58;126727;1090;102853;-80
2021/06/06 12:40:35;;;;;;;8.67;6.27;;;;;;;28.45;25.78;100283.36;126649;1088;113922;-80
2021/06/06 12:43:27;;;;;;;12.07;5.87;;;;;;;28.35;25.45;100293.38;126624;1088;102874;-77
2021/06/06 12:46:17;;;;;;;8.07;3.30;;;;;;;28.28;26.35;100288.67;126448;1090;114146;-78
2021/06/06 12:49:07;;;;;;;7.60;4.27;;;;;;;28.45;25.96;100284.20;126666;1090;102883;-77
2021/06/06 12:51:55;;;;;;;6.40;4.75;;;;;;;28.52;25.43;100276.32;126512;1090;114097;-77
2021/06/06 12:54:43;;;;;;;9.90;6.40;;;;;;;28.49;25.46;100287.39;126637;1088;102851;-78
2021/06/06 12:57:37;;;;;;;5.40;3.90;;;;;;;28.58;26.02;100283.73;126509;1090;115084;-78
2021/06/06 13:00:34;;;;;;;7.90;5.30;;;;;;;28.79;26.01;100284.10;126574;1090;102879;-78
2021/06/06 13:03:22;;;;;;;13.28;8.40;;;;;;;28.82;25.30;100285.61;126562;1089;113929;-78
2021/06/06 13:06:28;;;;;;;11.30;6.07;;;;;;;28.69;25.32;100278.03;126659;1090;102866;-78